PWSweather.com
Personal Weather Stations
Station Observations
APRSFL1
Magnolia Valley, New Port Richey, FL 34653

Magnolia ValleyNew Port Richey, FL 34653

Lat: 28.26, Lon: -82.688

Elevation: 19

Station Type: Davis Vantage Pro 2 Plus with 70ft high Webcam

http://www.aprsfl.net/weather

Latest ConditionsUpdated 11:00:12 PM EDT Monday, Apr 23, 2018
Currently Today's Max Today's Min Today's Average
Temperature 74.6°F23.7°C 85.0°F29.4°C 68.3°F20.2°C 75.6°F24.2°C
Dew Point -19.3°F-28.5°C 64.3°F17.9°C -35.0°F-37.2°C 4.6°F-15.2°C
Winds Calm Calm 4.0 mph SE6.4 kmh SE - 0.0 mph 0.0 kmh
Wind Gusts -- 11.0 mph17.7 kmh - -
Humidity 2% 50% 1% 15%
Pressure 30.01 in1016.3 mb 30.08 in1018.6 mb 29.96 in1014.6 mb -
Hour Temp Dew Point Humidity Winds Wind Gusts Pressure Precip Precip Rate Daily Precip Total
11:00 PM 74.6°F23.7°C -19.3°F-28.5°C 2% Calm Calm -- 30.01 in1016.3 mb 0.00 in0.0 mm 0.00 in0.0 mm 0.28 in7.1 mm
10:55 PM 74.6°F23.7°C -19.3°F-28.5°C 2% Calm Calm -- 30.01 in1016.3 mb 0.00 in0.0 mm 0.00 in0.0 mm 0.28 in7.1 mm
10:50 PM 74.7°F23.7°C -19.2°F-28.4°C 2% Calm Calm -- 30.01 in1016.3 mb 0.00 in0.0 mm 0.00 in0.0 mm 0.28 in7.1 mm
10:45 PM 74.7°F23.7°C -19.2°F-28.4°C 2% Calm Calm -- 30.01 in1016.3 mb 0.00 in0.0 mm 0.00 in0.0 mm 0.28 in7.1 mm
10:40 PM 74.8°F23.8°C -11.2°F-24.0°C 3% Calm Calm -- 30.01 in1016.3 mb 0.00 in0.0 mm 0.00 in0.0 mm 0.28 in7.1 mm
10:35 PM 74.8°F23.8°C -11.2°F-24.0°C 3% Calm Calm -- 30.01 in1016.3 mb 0.00 in0.0 mm 0.00 in0.0 mm 0.28 in7.1 mm
10:30 PM 74.9°F23.8°C -11.1°F-23.9°C 3% Calm Calm -- 30.01 in1016.3 mb 0.00 in0.0 mm 0.00 in0.0 mm 0.28 in7.1 mm
10:25 PM 75.0°F23.9°C -11.0°F-23.9°C 3% Calm Calm -- 30.01 in1016.3 mb 0.00 in0.0 mm 0.00 in0.0 mm 0.28 in7.1 mm
10:20 PM 75.1°F23.9°C -11.0°F-23.9°C 3% Calm Calm -- 30.01 in1016.3 mb 0.00 in0.0 mm 0.00 in0.0 mm 0.28 in7.1 mm
10:15 PM 75.2°F24.0°C -10.9°F-23.8°C 3% Calm Calm -- 30.01 in1016.3 mb 0.00 in0.0 mm 0.00 in0.0 mm 0.28 in7.1 mm
10:10 PM 75.3°F24.1°C -10.8°F-23.8°C 3% Calm Calm -- 30.01 in1016.3 mb 0.00 in0.0 mm 0.00 in0.0 mm 0.28 in7.1 mm
10:05 PM 75.3°F24.1°C -10.8°F-23.8°C 3% Calm Calm -- 30.01 in1016.3 mb 0.00 in0.0 mm 0.00 in0.0 mm 0.28 in7.1 mm
10:00 PM 75.4°F24.1°C -10.8°F-23.8°C 3% Calm Calm -- 30.01 in1016.3 mb 0.00 in0.0 mm 0.00 in0.0 mm 0.28 in7.1 mm
09:55 PM 75.5°F24.2°C -4.8°F-20.4°C 4% Calm Calm -- 30.01 in1016.3 mb 0.00 in0.0 mm 0.00 in0.0 mm 0.28 in7.1 mm
09:50 PM 75.5°F24.2°C -4.8°F-20.4°C 4% Calm Calm -- 30.01 in1016.3 mb 0.00 in0.0 mm 0.00 in0.0 mm 0.28 in7.1 mm
09:45 PM 75.6°F24.2°C -4.7°F-20.4°C 4% Calm Calm -- 30.01 in1016.3 mb 0.00 in0.0 mm 0.00 in0.0 mm 0.28 in7.1 mm
09:40 PM 75.6°F24.2°C -0.1°F-17.8°C 5% Calm Calm -- 30.00 in1015.9 mb 0.00 in0.0 mm 0.00 in0.0 mm 0.28 in7.1 mm
09:35 PM 75.7°F24.3°C 0.0°F-17.8°C 5% Calm Calm -- 30.00 in1015.9 mb 0.00 in0.0 mm 0.00 in0.0 mm 0.28 in7.1 mm
09:30 PM 75.7°F24.3°C 3.9°F-15.6°C 6% Calm Calm -- 30.00 in1015.9 mb 0.00 in0.0 mm 0.00 in0.0 mm 0.28 in7.1 mm
09:25 PM 75.7°F24.3°C 3.9°F-15.6°C 6% Calm Calm -- 30.00 in1015.9 mb 0.00 in0.0 mm 0.00 in0.0 mm 0.28 in7.1 mm
09:20 PM 75.8°F24.3°C 4.0°F-15.6°C 6% Calm Calm -- 30.00 in1015.9 mb 0.00 in0.0 mm 0.00 in0.0 mm 0.28 in7.1 mm
09:15 PM 76.0°F24.4°C 7.5°F-13.6°C 7% Calm Calm -- 30.00 in1015.9 mb 0.00 in0.0 mm 0.00 in0.0 mm 0.28 in7.1 mm
09:10 PM 76.0°F24.4°C 7.5°F-13.6°C 7% Calm Calm -- 30.00 in1015.9 mb 0.00 in0.0 mm 0.00 in0.0 mm 0.28 in7.1 mm
09:05 PM 76.1°F24.5°C 10.6°F-11.9°C 8% Calm Calm -- 30.00 in1015.9 mb 0.00 in0.0 mm 0.00 in0.0 mm 0.28 in7.1 mm
09:00 PM 76.2°F24.6°C 10.6°F-11.9°C 8% Calm Calm -- 29.99 in1015.6 mb 0.00 in0.0 mm 0.00 in0.0 mm 0.28 in7.1 mm
08:55 PM 76.4°F24.7°C 10.8°F-11.8°C 8% Calm Calm -- 29.99 in1015.6 mb 0.00 in0.0 mm 0.00 in0.0 mm 0.28 in7.1 mm
08:50 PM 76.5°F24.7°C 13.5°F-10.3°C 9% Calm Calm -- 29.99 in1015.6 mb 0.00 in0.0 mm 0.00 in0.0 mm 0.28 in7.1 mm
08:45 PM 76.5°F24.7°C 15.9°F-8.9°C 10% Calm Calm -- 29.99 in1015.6 mb 0.00 in0.0 mm 0.00 in0.0 mm 0.28 in7.1 mm
08:40 PM 76.6°F24.8°C 18.2°F-7.7°C 11% Calm Calm -- 29.98 in1015.2 mb 0.00 in0.0 mm 0.00 in0.0 mm 0.28 in7.1 mm
08:35 PM 76.7°F24.8°C 20.3°F-6.5°C 12% Calm Calm -- 29.98 in1015.2 mb 0.00 in0.0 mm 0.00 in0.0 mm 0.28 in7.1 mm
08:30 PM 77.0°F25.0°C 18.5°F-7.5°C 11% Calm Calm -- 29.98 in1015.2 mb 0.00 in0.0 mm 0.00 in0.0 mm 0.28 in7.1 mm
08:25 PM 77.2°F25.1°C 20.7°F-6.3°C 12% Calm Calm -- 29.98 in1015.2 mb 0.00 in0.0 mm 0.00 in0.0 mm 0.28 in7.1 mm
08:20 PM 77.4°F25.2°C 20.9°F-6.2°C 12% Calm Calm -- 29.98 in1015.2 mb 0.00 in0.0 mm 0.00 in0.0 mm 0.28 in7.1 mm
08:15 PM 77.6°F25.3°C 22.9°F-5.1°C 13% Calm Calm -- 29.98 in1015.2 mb 0.00 in0.0 mm 0.00 in0.0 mm 0.28 in7.1 mm
08:10 PM 77.6°F25.3°C 26.3°F-3.2°C 15% Calm Calm -- 29.97 in1014.9 mb 0.00 in0.0 mm 0.00 in0.0 mm 0.28 in7.1 mm
08:05 PM 77.7°F25.4°C 28.0°F-2.2°C 16% Calm Calm -- 29.98 in1015.2 mb 0.00 in0.0 mm 0.00 in0.0 mm 0.28 in7.1 mm
08:00 PM 77.7°F25.4°C 29.5°F-1.4°C 17% Calm Calm -- 29.97 in1014.9 mb 0.00 in0.0 mm 0.00 in0.0 mm 0.28 in7.1 mm
07:55 PM 77.8°F25.4°C 32.3°F0.2°C 19% Calm Calm -- 29.97 in1014.9 mb 0.00 in0.0 mm 0.00 in0.0 mm 0.28 in7.1 mm
07:50 PM 77.9°F25.5°C 34.9°F1.6°C 21% Calm Calm -- 29.97 in1014.9 mb 0.00 in0.0 mm 0.00 in0.0 mm 0.28 in7.1 mm
07:45 PM 78.1°F25.6°C 35.0°F1.7°C 21% Calm Calm -- 29.97 in1014.9 mb 0.00 in0.0 mm 0.00 in0.0 mm 0.28 in7.1 mm
07:40 PM 78.2°F25.7°C 37.4°F3.0°C 23% Calm Calm -- 29.97 in1014.9 mb 0.00 in0.0 mm 0.00 in0.0 mm 0.28 in7.1 mm
07:35 PM 78.4°F25.8°C 39.7°F4.3°C 25% Calm Calm -- 29.97 in1014.9 mb 0.00 in0.0 mm 0.00 in0.0 mm 0.28 in7.1 mm
07:30 PM 78.5°F25.8°C 42.7°F5.9°C 28% Calm Calm -- 29.97 in1014.9 mb 0.00 in0.0 mm 0.00 in0.0 mm 0.28 in7.1 mm
07:25 PM 78.7°F25.9°C 43.8°F6.6°C 29% Calm Calm -- 29.97 in1014.9 mb 0.00 in0.0 mm 0.00 in0.0 mm 0.28 in7.1 mm
07:20 PM 79.0°F26.1°C 45.8°F7.7°C 31% Calm Calm -- 29.97 in1014.9 mb 0.00 in0.0 mm 0.00 in0.0 mm 0.28 in7.1 mm
07:15 PM 79.2°F26.2°C 46.0°F7.8°C 31% Calm Calm -- 29.97 in1014.9 mb 0.00 in0.0 mm 0.00 in0.0 mm 0.28 in7.1 mm
07:10 PM 79.5°F26.4°C 47.9°F8.8°C 33% Calm Calm -- 29.97 in1014.9 mb 0.00 in0.0 mm 0.00 in0.0 mm 0.28 in7.1 mm
07:05 PM 79.7°F26.5°C 48.1°F8.9°C 33% Calm Calm -- 29.97 in1014.9 mb 0.00 in0.0 mm 0.00 in0.0 mm 0.28 in7.1 mm
07:00 PM 79.8°F26.6°C 49.0°F9.4°C 34% Calm Calm -- 29.96 in1014.6 mb 0.00 in0.0 mm 0.00 in0.0 mm 0.28 in7.1 mm
06:55 PM 79.8°F26.6°C 50.5°F10.3°C 36% Calm Calm -- 29.96 in1014.6 mb 0.00 in0.0 mm 0.00 in0.0 mm 0.28 in7.1 mm
06:50 PM 80.1°F26.7°C 51.5°F10.8°C 37% Calm Calm -- 29.96 in1014.6 mb 0.00 in0.0 mm 0.00 in0.0 mm 0.28 in7.1 mm
06:45 PM 80.4°F26.9°C 52.5°F11.4°C 38% Calm Calm -- 29.96 in1014.6 mb 0.00 in0.0 mm 0.00 in0.0 mm 0.28 in7.1 mm
06:40 PM 80.6°F27.0°C 52.7°F11.5°C 38% Calm Calm -- 29.96 in1014.6 mb 0.00 in0.0 mm 0.00 in0.0 mm 0.28 in7.1 mm
06:35 PM 80.6°F27.0°C 51.2°F10.7°C 36% Calm Calm -- 29.96 in1014.6 mb 0.00 in0.0 mm 0.00 in0.0 mm 0.28 in7.1 mm
06:30 PM 80.6°F27.0°C 52.0°F11.1°C 37% Calm Calm -- 29.96 in1014.6 mb 0.00 in0.0 mm 0.00 in0.0 mm 0.28 in7.1 mm
06:25 PM 80.7°F27.1°C 52.8°F11.6°C 38% Calm Calm -- 29.96 in1014.6 mb 0.00 in0.0 mm 0.00 in0.0 mm 0.28 in7.1 mm
06:20 PM 80.8°F27.1°C 52.1°F11.2°C 37% Calm Calm -- 29.96 in1014.6 mb 0.00 in0.0 mm 0.00 in0.0 mm 0.28 in7.1 mm
06:15 PM 81.0°F27.2°C 51.6°F10.9°C 36% Calm Calm -- 29.96 in1014.6 mb 0.00 in0.0 mm 0.00 in0.0 mm 0.28 in7.1 mm
06:10 PM 81.1°F27.3°C 51.7°F10.9°C 36% Calm Calm -- 29.96 in1014.6 mb 0.00 in0.0 mm 0.00 in0.0 mm 0.28 in7.1 mm
06:05 PM 81.2°F27.3°C 51.0°F10.6°C 35% Calm Calm -- 29.96 in1014.6 mb 0.00 in0.0 mm 0.00 in0.0 mm 0.28 in7.1 mm
06:00 PM 81.5°F27.5°C 51.2°F10.7°C 35% Calm Calm -- 29.96 in1014.6 mb 0.00 in0.0 mm 0.00 in0.0 mm 0.28 in7.1 mm
05:55 PM 81.8°F27.7°C 50.7°F10.4°C 34% Calm Calm -- 29.96 in1014.6 mb 0.00 in0.0 mm 0.00 in0.0 mm 0.28 in7.1 mm
05:50 PM 82.0°F27.8°C 49.3°F9.6°C 32% Calm Calm -- 29.96 in1014.6 mb 0.00 in0.0 mm 0.00 in0.0 mm 0.28 in7.1 mm
05:45 PM 81.7°F27.6°C 49.8°F9.9°C 33% Calm Calm -- 29.96 in1014.6 mb 0.00 in0.0 mm 0.00 in0.0 mm 0.28 in7.1 mm
05:40 PM 81.6°F27.6°C 51.3°F10.7°C 35% Calm Calm -- 29.96 in1014.6 mb 0.00 in0.0 mm 0.00 in0.0 mm 0.28 in7.1 mm
05:35 PM 81.8°F27.7°C 51.5°F10.8°C 35% Calm Calm -- 29.96 in1014.6 mb 0.00 in0.0 mm 0.00 in0.0 mm 0.28 in7.1 mm
05:30 PM 81.9°F27.7°C 53.1°F11.7°C 37% Calm Calm -- 29.96 in1014.6 mb 0.00 in0.0 mm 0.00 in0.0 mm 0.28 in7.1 mm
05:25 PM 82.2°F27.9°C 54.8°F12.7°C 39% Calm Calm -- 29.97 in1014.9 mb 0.00 in0.0 mm 0.00 in0.0 mm 0.28 in7.1 mm
05:20 PM 82.7°F28.2°C 56.6°F13.7°C 41% Calm Calm -- 29.97 in1014.9 mb 0.00 in0.0 mm 0.00 in0.0 mm 0.28 in7.1 mm
05:15 PM 82.8°F28.2°C 56.7°F13.7°C 41% Calm Calm -- 29.97 in1014.9 mb 0.00 in0.0 mm 0.00 in0.0 mm 0.28 in7.1 mm
05:10 PM 82.8°F28.2°C 56.0°F13.3°C 40% Calm Calm -- 29.97 in1014.9 mb 0.00 in0.0 mm 0.00 in0.0 mm 0.28 in7.1 mm
05:05 PM 83.0°F28.3°C 56.9°F13.8°C 41% Calm Calm -- 29.97 in1014.9 mb 0.00 in0.0 mm 0.00 in0.0 mm 0.28 in7.1 mm
05:00 PM 83.2°F28.4°C 58.4°F14.7°C 43% Calm Calm 1.0 mph1.6 kmh 29.97 in1014.9 mb 0.00 in0.0 mm 0.00 in0.0 mm 0.28 in7.1 mm
04:55 PM 83.1°F28.4°C 59.6°F15.3°C 45% Calm Calm -- 29.97 in1014.9 mb 0.00 in0.0 mm 0.00 in0.0 mm 0.28 in7.1 mm
04:50 PM 83.3°F28.5°C 60.4°F15.8°C 46% Calm Calm -- 29.96 in1014.6 mb 0.00 in0.0 mm 0.00 in0.0 mm 0.28 in7.1 mm
04:45 PM 83.5°F28.6°C 59.9°F15.5°C 45% Calm Calm -- 29.96 in1014.6 mb 0.00 in0.0 mm 0.00 in0.0 mm 0.28 in7.1 mm
04:40 PM 83.4°F28.6°C 59.2°F15.1°C 44% Calm Calm -- 29.96 in1014.6 mb 0.00 in0.0 mm 0.00 in0.0 mm 0.28 in7.1 mm
04:35 PM 83.3°F28.5°C 60.4°F15.8°C 46% Calm Calm -- 29.96 in1014.6 mb 0.00 in0.0 mm 0.00 in0.0 mm 0.28 in7.1 mm
04:30 PM 83.7°F28.7°C 60.7°F15.9°C 46% Calm Calm -- 29.96 in1014.6 mb 0.00 in0.0 mm 0.00 in0.0 mm 0.28 in7.1 mm
04:25 PM 83.9°F28.8°C 60.9°F16.1°C 46% Calm Calm -- 29.97 in1014.9 mb 0.00 in0.0 mm 0.00 in0.0 mm 0.28 in7.1 mm
04:20 PM 83.7°F28.7°C 59.5°F15.3°C 44% Calm Calm -- 29.97 in1014.9 mb 0.00 in0.0 mm 0.00 in0.0 mm 0.28 in7.1 mm
04:15 PM 83.3°F28.5°C 57.8°F14.3°C 42% Calm Calm -- 29.97 in1014.9 mb 0.00 in0.0 mm 0.00 in0.0 mm 0.28 in7.1 mm
04:10 PM 83.1°F28.4°C 59.0°F15.0°C 44% Calm Calm -- 29.97 in1014.9 mb 0.00 in0.0 mm 0.00 in0.0 mm 0.28 in7.1 mm
04:05 PM 83.0°F28.3°C 58.9°F14.9°C 44% Calm Calm 11.0 mph17.7 kmh 29.98 in1015.2 mb 0.00 in0.0 mm 0.00 in0.0 mm 0.28 in7.1 mm
04:00 PM 83.1°F28.4°C 60.8°F16.0°C 47% Calm Calm -- 29.98 in1015.2 mb 0.00 in0.0 mm 0.00 in0.0 mm 0.28 in7.1 mm
03:55 PM 83.6°F28.7°C 60.7°F15.9°C 46% Calm Calm -- 29.99 in1015.6 mb 0.00 in0.0 mm 0.00 in0.0 mm 0.28 in7.1 mm
03:50 PM 83.8°F28.8°C 60.8°F16.0°C 46% Calm Calm -- 29.99 in1015.6 mb 0.00 in0.0 mm 0.00 in0.0 mm 0.28 in7.1 mm
03:45 PM 84.0°F28.9°C 60.4°F15.8°C 45% Calm Calm -- 29.99 in1015.6 mb 0.00 in0.0 mm 0.00 in0.0 mm 0.28 in7.1 mm
03:40 PM 84.2°F29.0°C 59.3°F15.2°C 43% Calm Calm -- 29.99 in1015.6 mb 0.00 in0.0 mm 0.00 in0.0 mm 0.28 in7.1 mm
03:35 PM 83.7°F28.7°C 59.5°F15.3°C 44% Calm Calm -- 29.99 in1015.6 mb 0.00 in0.0 mm 0.00 in0.0 mm 0.28 in7.1 mm
03:30 PM 83.7°F28.7°C 57.5°F14.2°C 41% Calm Calm -- 30.00 in1015.9 mb 0.00 in0.0 mm 0.00 in0.0 mm 0.28 in7.1 mm
03:25 PM 83.5°F28.6°C 58.0°F14.4°C 42% Calm Calm -- 30.00 in1015.9 mb 0.00 in0.0 mm 0.00 in0.0 mm 0.28 in7.1 mm
03:20 PM 83.5°F28.6°C 58.7°F14.8°C 43% Calm Calm -- 30.00 in1015.9 mb 0.00 in0.0 mm 0.00 in0.0 mm 0.28 in7.1 mm
03:15 PM 83.4°F28.6°C 57.9°F14.4°C 42% Calm Calm -- 30.00 in1015.9 mb 0.00 in0.0 mm 0.00 in0.0 mm 0.28 in7.1 mm
03:10 PM 83.4°F28.6°C 58.6°F14.8°C 43% Calm Calm -- 30.00 in1015.9 mb 0.00 in0.0 mm 0.00 in0.0 mm 0.28 in7.1 mm
03:05 PM 83.6°F28.7°C 59.4°F15.2°C 44% Calm Calm -- 30.01 in1016.3 mb 0.00 in0.0 mm 0.00 in0.0 mm 0.28 in7.1 mm
03:00 PM 83.9°F28.8°C 60.3°F15.7°C 45% Calm Calm -- 30.01 in1016.3 mb 0.00 in0.0 mm 0.00 in0.0 mm 0.28 in7.1 mm
02:55 PM 84.2°F29.0°C 60.6°F15.9°C 45% Calm Calm -- 30.01 in1016.3 mb 0.00 in0.0 mm 0.00 in0.0 mm 0.28 in7.1 mm
02:50 PM 84.1°F28.9°C 59.9°F15.5°C 44% Calm Calm -- 30.01 in1016.3 mb 0.00 in0.0 mm 0.00 in0.0 mm 0.28 in7.1 mm
02:45 PM 84.1°F28.9°C 60.5°F15.8°C 45% Calm Calm -- 30.02 in1016.6 mb 0.00 in0.0 mm 0.00 in0.0 mm 0.28 in7.1 mm
02:40 PM 84.3°F29.1°C 61.9°F16.6°C 47% Calm Calm -- 30.02 in1016.6 mb 0.00 in0.0 mm 0.00 in0.0 mm 0.28 in7.1 mm
02:35 PM 84.7°F29.3°C 62.3°F16.8°C 47% Calm Calm -- 30.02 in1016.6 mb 0.00 in0.0 mm 0.00 in0.0 mm 0.28 in7.1 mm
02:30 PM 84.9°F29.4°C 63.0°F17.2°C 48% Calm Calm -- 30.02 in1016.6 mb 0.00 in0.0 mm 0.00 in0.0 mm 0.28 in7.1 mm
02:25 PM 84.9°F29.4°C 63.0°F17.2°C 48% Calm Calm -- 30.02 in1016.6 mb 0.00 in0.0 mm 0.00 in0.0 mm 0.28 in7.1 mm
02:20 PM 84.7°F29.3°C 62.3°F16.8°C 47% Calm Calm 9.0 mph14.5 kmh 30.02 in1016.6 mb 0.00 in0.0 mm 0.00 in0.0 mm 0.28 in7.1 mm
02:15 PM 84.6°F29.2°C 62.8°F17.1°C 48% Calm Calm 3.0 mph4.8 kmh 30.02 in1016.6 mb 0.00 in0.0 mm 0.00 in0.0 mm 0.28 in7.1 mm
02:10 PM 85.0°F29.4°C 64.3°F17.9°C 50% Calm Calm -- 30.03 in1016.9 mb 0.00 in0.0 mm 0.00 in0.0 mm 0.28 in7.1 mm
02:05 PM 84.9°F29.4°C 63.6°F17.6°C 49% Calm Calm -- 30.02 in1016.6 mb 0.00 in0.0 mm 0.00 in0.0 mm 0.28 in7.1 mm
02:00 PM 84.7°F29.3°C 62.9°F17.2°C 48% Calm Calm -- 30.03 in1016.9 mb 0.00 in0.0 mm 0.00 in0.0 mm 0.28 in7.1 mm
01:55 PM 84.5°F29.2°C 62.1°F16.7°C 47% Calm Calm -- 30.03 in1016.9 mb 0.00 in0.0 mm 0.00 in0.0 mm 0.28 in7.1 mm
01:50 PM 84.2°F29.0°C 61.2°F16.2°C 46% Calm Calm 4.0 mph6.4 kmh 30.03 in1016.9 mb 0.00 in0.0 mm 0.00 in0.0 mm 0.28 in7.1 mm
01:45 PM 84.0°F28.9°C 61.6°F16.4°C 47% Calm Calm -- 30.03 in1016.9 mb 0.00 in0.0 mm 0.00 in0.0 mm 0.28 in7.1 mm
01:40 PM 84.2°F29.0°C 62.4°F16.9°C 48% Calm Calm -- 30.03 in1016.9 mb 0.00 in0.0 mm 0.00 in0.0 mm 0.28 in7.1 mm
01:35 PM 84.5°F29.2°C 63.8°F17.7°C 50% Calm Calm -- 30.03 in1016.9 mb 0.00 in0.0 mm 0.00 in0.0 mm 0.28 in7.1 mm
01:30 PM 84.6°F29.2°C 63.4°F17.4°C 49% Calm Calm -- 30.03 in1016.9 mb 0.00 in0.0 mm 0.00 in0.0 mm 0.28 in7.1 mm
01:25 PM 84.5°F29.2°C 61.5°F16.4°C 46% Calm Calm -- 30.03 in1016.9 mb 0.00 in0.0 mm 0.00 in0.0 mm 0.28 in7.1 mm
01:20 PM 84.4°F29.1°C 60.1°F15.6°C 44% Calm Calm -- 30.04 in1017.3 mb 0.00 in0.0 mm 0.00 in0.0 mm 0.28 in7.1 mm
01:15 PM 84.1°F28.9°C 57.2°F14.0°C 40% Calm Calm -- 30.04 in1017.3 mb 0.00 in0.0 mm 0.00 in0.0 mm 0.28 in7.1 mm
01:10 PM 83.8°F28.8°C 58.9°F14.9°C 43% Calm Calm -- 30.04 in1017.3 mb 0.00 in0.0 mm 0.00 in0.0 mm 0.28 in7.1 mm
01:05 PM 83.9°F28.8°C 56.3°F13.5°C 39% Calm Calm -- 30.04 in1017.3 mb 0.00 in0.0 mm 0.00 in0.0 mm 0.28 in7.1 mm
01:00 PM 83.5°F28.6°C 56.7°F13.7°C 40% Calm Calm -- 30.04 in1017.3 mb 0.00 in0.0 mm 0.00 in0.0 mm 0.28 in7.1 mm
12:55 PM 83.2°F28.4°C 55.0°F12.8°C 38% Calm Calm 4.0 mph6.4 kmh 30.04 in1017.3 mb 0.00 in0.0 mm 0.00 in0.0 mm 0.28 in7.1 mm
12:50 PM 82.5°F28.1°C 50.5°F10.3°C 33% Calm Calm -- 30.04 in1017.3 mb 0.00 in0.0 mm 0.00 in0.0 mm 0.28 in7.1 mm
12:45 PM 82.5°F28.1°C 50.5°F10.3°C 33% Calm Calm -- 30.04 in1017.3 mb 0.00 in0.0 mm 0.00 in0.0 mm 0.28 in7.1 mm
12:40 PM 82.2°F27.9°C 51.1°F10.6°C 34% Calm Calm -- 30.04 in1017.3 mb 0.00 in0.0 mm 0.00 in0.0 mm 0.28 in7.1 mm
12:35 PM 82.4°F28.0°C 51.2°F10.7°C 34% Calm Calm -- 30.04 in1017.3 mb 0.00 in0.0 mm 0.00 in0.0 mm 0.28 in7.1 mm
12:30 PM 82.5°F28.1°C 46.1°F7.8°C 28% Calm Calm -- 30.04 in1017.3 mb 0.00 in0.0 mm 0.00 in0.0 mm 0.28 in7.1 mm
12:25 PM 81.9°F27.7°C 39.4°F4.1°C 22% Calm Calm -- 30.04 in1017.3 mb 0.00 in0.0 mm 0.00 in0.0 mm 0.28 in7.1 mm
12:20 PM 81.1°F27.3°C 33.6°F0.9°C 18% Calm Calm -- 30.05 in1017.6 mb 0.00 in0.0 mm 0.00 in0.0 mm 0.28 in7.1 mm
12:15 PM 80.5°F26.9°C 25.2°F-3.8°C 13% Calm Calm -- 30.05 in1017.6 mb 0.00 in0.0 mm 0.00 in0.0 mm 0.28 in7.1 mm
12:10 PM 80.1°F26.7°C 16.2°F-8.8°C 9% Calm Calm -- 30.05 in1017.6 mb 0.00 in0.0 mm 0.00 in0.0 mm 0.28 in7.1 mm
12:05 PM 79.4°F26.3°C 2.6°F-16.3°C 5% Calm Calm -- 30.05 in1017.6 mb 0.00 in0.0 mm 0.00 in0.0 mm 0.28 in7.1 mm
12:00 PM 79.0°F26.1°C -29.5°F-34.2°C 1% Calm Calm -- 30.05 in1017.6 mb 0.00 in0.0 mm 0.00 in0.0 mm 0.28 in7.1 mm
11:55 AM 78.6°F25.9°C -29.8°F-34.3°C 1% Calm Calm -- 30.05 in1017.6 mb 0.00 in0.0 mm 0.00 in0.0 mm 0.28 in7.1 mm
11:50 AM 78.1°F25.6°C -30.1°F-34.5°C 1% Calm Calm -- 30.06 in1017.9 mb 0.00 in0.0 mm 0.00 in0.0 mm 0.28 in7.1 mm
11:45 AM 77.6°F25.3°C -30.4°F-34.7°C 1% Calm Calm -- 30.06 in1017.9 mb 0.00 in0.0 mm 0.00 in0.0 mm 0.28 in7.1 mm
11:40 AM 77.5°F25.3°C -30.4°F-34.7°C 1% Calm Calm -- 30.06 in1017.9 mb 0.00 in0.0 mm 0.00 in0.0 mm 0.28 in7.1 mm
11:35 AM 77.3°F25.2°C -30.6°F-34.8°C 1% Calm Calm -- 30.06 in1017.9 mb 0.00 in0.0 mm 0.00 in0.0 mm 0.28 in7.1 mm
11:30 AM 77.0°F25.0°C -30.7°F-34.8°C 1% Calm Calm -- 30.06 in1017.9 mb 0.01 in0.3 mm 0.00 in0.0 mm 0.28 in7.1 mm
11:25 AM 77.0°F25.0°C -30.7°F-34.8°C 1% Calm Calm -- 30.06 in1017.9 mb 0.01 in0.3 mm 0.00 in0.0 mm 0.28 in7.1 mm
11:20 AM 76.8°F24.9°C -30.9°F-34.9°C 1% Calm Calm -- 30.06 in1017.9 mb 0.01 in0.3 mm 0.00 in0.0 mm 0.28 in7.1 mm
11:15 AM 76.4°F24.7°C -31.1°F-35.1°C 1% Calm Calm 8.0 mph12.9 kmh 30.06 in1017.9 mb 0.01 in0.3 mm 0.00 in0.0 mm 0.28 in7.1 mm
11:10 AM 76.0°F24.4°C -31.3°F-35.2°C 1% Calm Calm -- 30.06 in1017.9 mb 0.01 in0.3 mm 0.00 in0.0 mm 0.28 in7.1 mm
11:05 AM 75.8°F24.3°C -31.5°F-35.3°C 1% Calm Calm -- 30.06 in1017.9 mb 0.01 in0.3 mm 0.00 in0.0 mm 0.28 in7.1 mm
11:00 AM 75.6°F24.2°C -31.6°F-35.3°C 1% Calm Calm -- 30.06 in1017.9 mb 0.01 in0.3 mm 0.00 in0.0 mm 0.28 in7.1 mm
10:55 AM 75.5°F24.2°C -31.6°F-35.3°C 1% Calm Calm -- 30.07 in1018.3 mb 0.01 in0.3 mm 0.00 in0.0 mm 0.28 in7.1 mm
10:50 AM 75.6°F24.2°C -31.6°F-35.3°C 1% Calm Calm -- 30.06 in1017.9 mb 0.01 in0.3 mm 0.00 in0.0 mm 0.28 in7.1 mm
10:45 AM 75.5°F24.2°C -31.6°F-35.3°C 1% Calm Calm -- 30.06 in1017.9 mb 0.01 in0.3 mm 0.00 in0.0 mm 0.28 in7.1 mm
10:40 AM 74.9°F23.8°C -32.0°F-35.6°C 1% Calm Calm -- 30.06 in1017.9 mb 0.01 in0.3 mm 0.00 in0.0 mm 0.28 in7.1 mm
10:35 AM 74.5°F23.6°C -32.2°F-35.7°C 1% Calm Calm -- 30.06 in1017.9 mb 0.01 in0.3 mm 0.00 in0.0 mm 0.28 in7.1 mm
10:30 AM 74.3°F23.5°C -32.4°F-35.8°C 1% Calm Calm -- 30.06 in1017.9 mb 0.02 in0.5 mm 0.00 in0.0 mm 0.28 in7.1 mm
10:25 AM 74.0°F23.3°C -32.5°F-35.8°C 1% Calm Calm -- 30.06 in1017.9 mb 0.02 in0.5 mm 0.12 in3.0 mm 0.28 in7.1 mm
10:20 AM 73.9°F23.3°C -32.6°F-35.9°C 1% Calm Calm -- 30.06 in1017.9 mb 0.01 in0.3 mm 0.00 in0.0 mm 0.27 in6.9 mm
10:15 AM 73.9°F23.3°C -32.6°F-35.9°C 1% 4.0 mph SE6.4 kmh SE 5.0 mph8.0 kmh 30.06 in1017.9 mb 0.01 in0.3 mm 0.00 in0.0 mm 0.27 in6.9 mm
10:10 AM 73.6°F23.1°C -32.8°F-36.0°C 1% Calm Calm -- 30.05 in1017.6 mb 0.01 in0.3 mm 0.00 in0.0 mm 0.27 in6.9 mm
10:05 AM 73.5°F23.1°C -32.8°F-36.0°C 1% Calm Calm -- 30.06 in1017.9 mb 0.01 in0.3 mm 0.00 in0.0 mm 0.27 in6.9 mm
10:00 AM 73.5°F23.1°C -32.8°F-36.0°C 1% Calm Calm -- 30.06 in1017.9 mb 0.03 in0.8 mm 0.00 in0.0 mm 0.27 in6.9 mm
09:55 AM 73.4°F23.0°C -32.9°F-36.1°C 1% Calm Calm -- 30.06 in1017.9 mb 0.03 in0.8 mm 0.00 in0.0 mm 0.27 in6.9 mm
09:50 AM 73.3°F22.9°C -33.0°F-36.1°C 1% 2.0 mph SE3.2 kmh SE 2.0 mph3.2 kmh 30.06 in1017.9 mb 0.03 in0.8 mm 0.00 in0.0 mm 0.27 in6.9 mm
09:45 AM 73.4°F23.0°C -32.9°F-36.1°C 1% Calm Calm -- 30.06 in1017.9 mb 0.03 in0.8 mm 0.00 in0.0 mm 0.27 in6.9 mm
09:40 AM 73.5°F23.1°C -32.8°F-36.0°C 1% Calm Calm -- 30.06 in1017.9 mb 0.03 in0.8 mm 0.00 in0.0 mm 0.27 in6.9 mm
09:35 AM 73.5°F23.1°C -32.8°F-36.0°C 1% Calm Calm -- 30.06 in1017.9 mb 0.03 in0.8 mm 0.00 in0.0 mm 0.27 in6.9 mm
09:30 AM 73.4°F23.0°C -32.9°F-36.1°C 1% Calm Calm -- 30.06 in1017.9 mb 0.04 in1.0 mm 0.00 in0.0 mm 0.27 in6.9 mm
09:25 AM 73.3°F22.9°C -33.0°F-36.1°C 1% Calm Calm -- 30.06 in1017.9 mb 0.04 in1.0 mm 0.00 in0.0 mm 0.27 in6.9 mm
09:20 AM 73.1°F22.8°C -33.1°F-36.2°C 1% Calm Calm -- 30.06 in1017.9 mb 0.04 in1.0 mm 0.00 in0.0 mm 0.27 in6.9 mm
09:15 AM 73.0°F22.8°C -33.1°F-36.2°C 1% Calm Calm -- 30.06 in1017.9 mb 0.04 in1.0 mm 0.00 in0.0 mm 0.27 in6.9 mm
09:10 AM 72.8°F22.7°C -33.3°F-36.3°C 1% Calm Calm -- 30.07 in1018.3 mb 0.04 in1.0 mm 0.00 in0.0 mm 0.27 in6.9 mm
09:05 AM 72.7°F22.6°C -33.3°F-36.3°C 1% Calm Calm -- 30.07 in1018.3 mb 0.04 in1.0 mm 0.00 in0.0 mm 0.27 in6.9 mm
09:00 AM 72.6°F22.6°C -33.4°F-36.3°C 1% Calm Calm -- 30.07 in1018.3 mb 0.05 in1.3 mm 0.00 in0.0 mm 0.27 in6.9 mm
08:55 AM 72.5°F22.5°C -33.4°F-36.3°C 1% 2.0 mph SSE3.2 kmh SSE 3.0 mph4.8 kmh 30.06 in1017.9 mb 0.05 in1.3 mm 0.00 in0.0 mm 0.27 in6.9 mm
08:50 AM 72.5°F22.5°C -33.4°F-36.3°C 1% Calm Calm 1.0 mph1.6 kmh 30.07 in1018.3 mb 0.05 in1.3 mm 0.00 in0.0 mm 0.27 in6.9 mm
08:45 AM 72.4°F22.4°C -33.5°F-36.4°C 1% Calm Calm -- 30.07 in1018.3 mb 0.05 in1.3 mm 0.12 in3.0 mm 0.27 in6.9 mm
08:40 AM 72.4°F22.4°C -33.5°F-36.4°C 1% Calm Calm -- 30.07 in1018.3 mb 0.04 in1.0 mm 0.00 in0.0 mm 0.26 in6.6 mm
08:35 AM 72.3°F22.4°C -33.6°F-36.4°C 1% Calm Calm -- 30.07 in1018.3 mb 0.04 in1.0 mm 0.00 in0.0 mm 0.26 in6.6 mm
08:30 AM 72.3°F22.4°C -33.6°F-36.4°C 1% Calm Calm -- 30.07 in1018.3 mb 0.26 in6.6 mm 0.00 in0.0 mm 0.26 in6.6 mm
08:25 AM 72.2°F22.3°C -33.6°F-36.4°C 1% Calm Calm -- 30.06 in1017.9 mb 0.26 in6.6 mm 0.12 in3.0 mm 0.26 in6.6 mm
08:20 AM 72.1°F22.3°C -33.7°F-36.5°C 1% Calm Calm -- 30.06 in1017.9 mb 0.25 in6.4 mm 0.00 in0.0 mm 0.25 in6.4 mm
08:15 AM 72.0°F22.2°C -33.7°F-36.5°C 1% Calm Calm -- 30.06 in1017.9 mb 0.25 in6.4 mm 0.00 in0.0 mm 0.25 in6.4 mm
08:10 AM 71.9°F22.2°C -33.8°F-36.6°C 1% Calm Calm -- 30.06 in1017.9 mb 0.25 in6.4 mm 0.00 in0.0 mm 0.25 in6.4 mm
08:05 AM 71.7°F22.1°C -33.9°F-36.6°C 1% Calm Calm -- 30.06 in1017.9 mb 0.25 in6.4 mm 0.00 in0.0 mm 0.25 in6.4 mm
08:00 AM 71.6°F22.0°C -34.0°F-36.7°C 1% Calm Calm -- 30.06 in1017.9 mb 0.25 in6.4 mm 0.00 in0.0 mm 0.25 in6.4 mm
07:55 AM 71.5°F21.9°C -34.0°F-36.7°C 1% Calm Calm -- 30.06 in1017.9 mb 0.25 in6.4 mm 0.00 in0.0 mm 0.25 in6.4 mm
07:50 AM 71.5°F21.9°C -34.0°F-36.7°C 1% Calm Calm -- 30.05 in1017.6 mb 0.25 in6.4 mm 0.12 in3.0 mm 0.25 in6.4 mm
07:45 AM 71.4°F21.9°C -34.1°F-36.7°C 1% Calm Calm -- 30.06 in1017.9 mb 0.24 in6.1 mm 0.12 in3.0 mm 0.24 in6.1 mm
07:40 AM 71.3°F21.8°C -34.2°F-36.8°C 1% Calm Calm -- 30.06 in1017.9 mb 0.23 in5.8 mm 0.00 in0.0 mm 0.23 in5.8 mm
07:35 AM 71.2°F21.8°C -34.2°F-36.8°C 1% Calm Calm -- 30.05 in1017.6 mb 0.23 in5.8 mm 0.00 in0.0 mm 0.23 in5.8 mm
07:30 AM 71.2°F21.8°C -34.2°F-36.8°C 1% Calm Calm -- 30.05 in1017.6 mb 0.23 in5.8 mm 0.36 in9.1 mm 0.23 in5.8 mm
07:25 AM 71.1°F21.7°C -34.3°F-36.8°C 1% Calm Calm -- 30.05 in1017.6 mb 0.20 in5.1 mm 0.00 in0.0 mm 0.20 in5.1 mm
07:20 AM 71.0°F21.7°C -34.3°F-36.8°C 1% 2.0 mph SE3.2 kmh SE 2.0 mph3.2 kmh 30.04 in1017.3 mb 0.20 in5.1 mm 0.00 in0.0 mm 0.20 in5.1 mm
07:15 AM 70.8°F21.6°C -34.5°F-36.9°C 1% Calm Calm -- 30.04 in1017.3 mb 0.20 in5.1 mm 0.12 in3.0 mm 0.20 in5.1 mm
07:10 AM 70.6°F21.4°C -34.6°F-37.0°C 1% Calm Calm -- 30.04 in1017.3 mb 0.19 in4.8 mm 1.08 in27.4 mm 0.19 in4.8 mm
07:05 AM 70.2°F21.2°C -34.8°F-37.1°C 1% Calm Calm -- 30.05 in1017.6 mb 0.10 in2.5 mm 1.20 in30.5 mm 0.10 in2.5 mm
07:00 AM 70.1°F21.2°C -34.9°F-37.2°C 1% Calm Calm -- 30.04 in1017.3 mb 0.00 in0.0 mm 0.00 in0.0 mm 0.00 in0.0 mm
06:55 AM 70.1°F21.2°C -34.9°F-37.2°C 1% Calm Calm -- 30.04 in1017.3 mb 0.00 in0.0 mm 0.00 in0.0 mm 0.00 in0.0 mm
06:50 AM 70.1°F21.2°C -34.9°F-37.2°C 1% Calm Calm -- 30.04 in1017.3 mb 0.00 in0.0 mm 0.00 in0.0 mm 0.00 in0.0 mm
06:45 AM 70.0°F21.1°C -34.9°F-37.2°C 1% Calm Calm -- 30.04 in1017.3 mb 0.00 in0.0 mm 0.00 in0.0 mm 0.00 in0.0 mm
06:40 AM 70.0°F21.1°C -34.9°F-37.2°C 1% Calm Calm -- 30.04 in1017.3 mb 0.00 in0.0 mm 0.00 in0.0 mm 0.00 in0.0 mm
06:35 AM 70.0°F21.1°C -34.9°F-37.2°C 1% Calm Calm -- 30.04 in1017.3 mb 0.00 in0.0 mm 0.00 in0.0 mm 0.00 in0.0 mm
06:30 AM 70.0°F21.1°C -34.9°F-37.2°C 1% Calm Calm -- 30.04 in1017.3 mb 0.00 in0.0 mm 0.00 in0.0 mm 0.00 in0.0 mm
06:25 AM 70.0°F21.1°C -34.9°F-37.2°C 1% Calm Calm -- 30.03 in1016.9 mb 0.00 in0.0 mm 0.00 in0.0 mm 0.00 in0.0 mm
06:20 AM 69.9°F21.1°C -35.0°F-37.2°C 1% Calm Calm -- 30.03 in1016.9 mb 0.00 in0.0 mm 0.00 in0.0 mm 0.00 in0.0 mm
06:15 AM 69.9°F21.1°C -35.0°F-37.2°C 1% Calm Calm -- 30.03 in1016.9 mb 0.00 in0.0 mm 0.00 in0.0 mm 0.00 in0.0 mm
06:10 AM 69.9°F21.1°C -35.0°F-37.2°C 1% Calm Calm -- 30.03 in1016.9 mb 0.00 in0.0 mm 0.00 in0.0 mm 0.00 in0.0 mm
06:05 AM 69.9°F21.1°C -35.0°F-37.2°C 1% Calm Calm -- 30.02 in1016.6 mb 0.00 in0.0 mm 0.00 in0.0 mm 0.00 in0.0 mm
06:00 AM 69.9°F21.1°C -35.0°F-37.2°C 1% Calm Calm -- 30.02 in1016.6 mb 0.00 in0.0 mm 0.00 in0.0 mm 0.00 in0.0 mm
05:55 AM 69.9°F21.1°C -35.0°F-37.2°C 1% Calm Calm -- 30.02 in1016.6 mb 0.00 in0.0 mm 0.00 in0.0 mm 0.00 in0.0 mm
05:50 AM 70.0°F21.1°C -34.9°F-37.2°C 1% Calm Calm -- 30.01 in1016.3 mb 0.00 in0.0 mm 0.00 in0.0 mm 0.00 in0.0 mm
05:45 AM 70.0°F21.1°C -34.9°F-37.2°C 1% Calm Calm -- 30.01 in1016.3 mb 0.00 in0.0 mm 0.00 in0.0 mm 0.00 in0.0 mm
05:40 AM 70.0°F21.1°C -34.9°F-37.2°C 1% Calm Calm -- 30.01 in1016.3 mb 0.00 in0.0 mm 0.00 in0.0 mm 0.00 in0.0 mm
05:35 AM 70.0°F21.1°C -34.9°F-37.2°C 1% Calm Calm -- 30.02 in1016.6 mb 0.00 in0.0 mm 0.00 in0.0 mm 0.00 in0.0 mm
05:30 AM 70.0°F21.1°C -22.2°F-30.1°C 2% Calm Calm -- 30.02 in1016.6 mb 0.00 in0.0 mm 0.00 in0.0 mm 0.00 in0.0 mm
05:25 AM 70.0°F21.1°C -22.2°F-30.1°C 2% Calm Calm -- 30.02 in1016.6 mb 0.00 in0.0 mm 0.00 in0.0 mm 0.00 in0.0 mm
05:20 AM 70.0°F21.1°C -22.2°F-30.1°C 2% Calm Calm -- 30.02 in1016.6 mb 0.00 in0.0 mm 0.00 in0.0 mm 0.00 in0.0 mm
05:15 AM 70.1°F21.2°C -22.2°F-30.1°C 2% Calm Calm -- 30.02 in1016.6 mb 0.00 in0.0 mm 0.00 in0.0 mm 0.00 in0.0 mm
05:10 AM 70.1°F21.2°C -22.2°F-30.1°C 2% Calm Calm -- 30.02 in1016.6 mb 0.00 in0.0 mm 0.00 in0.0 mm 0.00 in0.0 mm
05:05 AM 70.1°F21.2°C -22.2°F-30.1°C 2% Calm Calm -- 30.02 in1016.6 mb 0.00 in0.0 mm 0.00 in0.0 mm 0.00 in0.0 mm
05:00 AM 70.1°F21.2°C -22.2°F-30.1°C 2% Calm Calm -- 30.02 in1016.6 mb 0.00 in0.0 mm 0.00 in0.0 mm 0.00 in0.0 mm
04:55 AM 70.1°F21.2°C -22.2°F-30.1°C 2% Calm Calm -- 30.02 in1016.6 mb 0.00 in0.0 mm 0.00 in0.0 mm 0.00 in0.0 mm
04:50 AM 70.1°F21.2°C -22.2°F-30.1°C 2% Calm Calm -- 30.02 in1016.6 mb 0.00 in0.0 mm 0.00 in0.0 mm 0.00 in0.0 mm
04:45 AM 70.1°F21.2°C -22.2°F-30.1°C 2% Calm Calm -- 30.02 in1016.6 mb 0.00 in0.0 mm 0.00 in0.0 mm 0.00 in0.0 mm
04:40 AM 70.1°F21.2°C -22.2°F-30.1°C 2% Calm Calm -- 30.02 in1016.6 mb 0.00 in0.0 mm 0.00 in0.0 mm 0.00 in0.0 mm
04:35 AM 70.1°F21.2°C -22.2°F-30.1°C 2% Calm Calm -- 30.02 in1016.6 mb 0.00 in0.0 mm 0.00 in0.0 mm 0.00 in0.0 mm
04:30 AM 70.0°F21.1°C -22.2°F-30.1°C 2% Calm Calm -- 30.02 in1016.6 mb 0.00 in0.0 mm 0.00 in0.0 mm 0.00 in0.0 mm
04:25 AM 70.0°F21.1°C -22.2°F-30.1°C 2% Calm Calm -- 30.02 in1016.6 mb 0.00 in0.0 mm 0.00 in0.0 mm 0.00 in0.0 mm
04:20 AM 69.9°F21.1°C -22.3°F-30.2°C 2% Calm Calm -- 30.01 in1016.3 mb 0.00 in0.0 mm 0.00 in0.0 mm 0.00 in0.0 mm
04:15 AM 69.8°F21.0°C -22.4°F-30.2°C 2% Calm Calm -- 30.01 in1016.3 mb 0.00 in0.0 mm 0.00 in0.0 mm 0.00 in0.0 mm
04:10 AM 69.7°F20.9°C -22.4°F-30.2°C 2% Calm Calm -- 30.02 in1016.6 mb 0.00 in0.0 mm 0.00 in0.0 mm 0.00 in0.0 mm
04:05 AM 69.6°F20.9°C -22.5°F-30.3°C 2% Calm Calm 7.0 mph11.3 kmh 30.02 in1016.6 mb 0.00 in0.0 mm 0.00 in0.0 mm 0.00 in0.0 mm
04:00 AM 69.4°F20.8°C -22.6°F-30.3°C 2% Calm Calm -- 30.02 in1016.6 mb 0.00 in0.0 mm 0.00 in0.0 mm 0.00 in0.0 mm
03:55 AM 69.3°F20.7°C -22.7°F-30.4°C 2% Calm Calm -- 30.02 in1016.6 mb 0.00 in0.0 mm 0.00 in0.0 mm 0.00 in0.0 mm
03:50 AM 69.2°F20.7°C -22.8°F-30.4°C 2% Calm Calm -- 30.02 in1016.6 mb 0.00 in0.0 mm 0.00 in0.0 mm 0.00 in0.0 mm
03:45 AM 69.0°F20.6°C -22.9°F-30.5°C 2% Calm Calm -- 30.01 in1016.3 mb 0.00 in0.0 mm 0.00 in0.0 mm 0.00 in0.0 mm
03:40 AM 68.8°F20.4°C -23.0°F-30.6°C 2% Calm Calm -- 30.01 in1016.3 mb 0.00 in0.0 mm 0.00 in0.0 mm 0.00 in0.0 mm
03:35 AM 68.7°F20.4°C -23.1°F-30.6°C 2% 2.0 mph SSE3.2 kmh SSE 2.0 mph3.2 kmh 30.01 in1016.3 mb 0.00 in0.0 mm 0.00 in0.0 mm 0.00 in0.0 mm
03:30 AM 68.5°F20.3°C -15.4°F-26.3°C 3% Calm Calm -- 30.01 in1016.3 mb 0.00 in0.0 mm 0.00 in0.0 mm 0.00 in0.0 mm
03:25 AM 68.4°F20.2°C -15.5°F-26.4°C 3% Calm Calm -- 30.01 in1016.3 mb 0.00 in0.0 mm 0.00 in0.0 mm 0.00 in0.0 mm
03:20 AM 68.4°F20.2°C -15.5°F-26.4°C 3% Calm Calm -- 30.01 in1016.3 mb 0.00 in0.0 mm 0.00 in0.0 mm 0.00 in0.0 mm
03:15 AM 68.3°F20.2°C -15.5°F-26.4°C 3% Calm Calm -- 30.01 in1016.3 mb 0.00 in0.0 mm 0.00 in0.0 mm 0.00 in0.0 mm
03:10 AM 68.3°F20.2°C -15.5°F-26.4°C 3% Calm Calm -- 30.02 in1016.6 mb 0.00 in0.0 mm 0.00 in0.0 mm 0.00 in0.0 mm
03:05 AM 68.4°F20.2°C -15.5°F-26.4°C 3% Calm Calm -- 30.02 in1016.6 mb 0.00 in0.0 mm 0.00 in0.0 mm 0.00 in0.0 mm
03:00 AM 68.4°F20.2°C -15.5°F-26.4°C 3% Calm Calm -- 30.02 in1016.6 mb 0.00 in0.0 mm 0.00 in0.0 mm 0.00 in0.0 mm
02:55 AM 68.4°F20.2°C -15.5°F-26.4°C 3% Calm Calm -- 30.02 in1016.6 mb 0.00 in0.0 mm 0.00 in0.0 mm 0.00 in0.0 mm
02:50 AM 68.4°F20.2°C -15.5°F-26.4°C 3% Calm Calm -- 30.02 in1016.6 mb 0.00 in0.0 mm 0.00 in0.0 mm 0.00 in0.0 mm
02:45 AM 68.5°F20.3°C -15.4°F-26.3°C 3% Calm Calm -- 30.03 in1016.9 mb 0.00 in0.0 mm 0.00 in0.0 mm 0.00 in0.0 mm
02:40 AM 68.6°F20.3°C -15.3°F-26.3°C 3% Calm Calm -- 30.03 in1016.9 mb 0.00 in0.0 mm 0.00 in0.0 mm 0.00 in0.0 mm
02:35 AM 68.6°F20.3°C -15.3°F-26.3°C 3% Calm Calm -- 30.03 in1016.9 mb 0.00 in0.0 mm 0.00 in0.0 mm 0.00 in0.0 mm
02:30 AM 68.6°F20.3°C -15.3°F-26.3°C 3% Calm Calm -- 30.04 in1017.3 mb 0.00 in0.0 mm 0.00 in0.0 mm 0.00 in0.0 mm
02:25 AM 68.6°F20.3°C -15.3°F-26.3°C 3% Calm Calm -- 30.04 in1017.3 mb 0.00 in0.0 mm 0.00 in0.0 mm 0.00 in0.0 mm
02:20 AM 68.6°F20.3°C -15.3°F-26.3°C 3% Calm Calm -- 30.04 in1017.3 mb 0.00 in0.0 mm 0.00 in0.0 mm 0.00 in0.0 mm
02:15 AM 68.6°F20.3°C -15.3°F-26.3°C 3% Calm Calm -- 30.04 in1017.3 mb 0.00 in0.0 mm 0.00 in0.0 mm 0.00 in0.0 mm
02:10 AM 68.6°F20.3°C -15.3°F-26.3°C 3% Calm Calm -- 30.04 in1017.3 mb 0.00 in0.0 mm 0.00 in0.0 mm 0.00 in0.0 mm
02:05 AM 68.6°F20.3°C -15.3°F-26.3°C 3% Calm Calm -- 30.04 in1017.3 mb 0.00 in0.0 mm 0.00 in0.0 mm 0.00 in0.0 mm
02:00 AM 68.6°F20.3°C -15.3°F-26.3°C 3% Calm Calm -- 30.05 in1017.6 mb 0.00 in0.0 mm 0.00 in0.0 mm 0.00 in0.0 mm
01:55 AM 68.6°F20.3°C -15.3°F-26.3°C 3% Calm Calm -- 30.05 in1017.6 mb 0.00 in0.0 mm 0.00 in0.0 mm 0.00 in0.0 mm
01:50 AM 68.6°F20.3°C -15.3°F-26.3°C 3% Calm Calm -- 30.05 in1017.6 mb 0.00 in0.0 mm 0.00 in0.0 mm 0.00 in0.0 mm
01:45 AM 68.5°F20.3°C -15.4°F-26.3°C 3% Calm Calm -- 30.05 in1017.6 mb 0.00 in0.0 mm 0.00 in0.0 mm 0.00 in0.0 mm
01:40 AM 68.5°F20.3°C -15.4°F-26.3°C 3% Calm Calm 5.0 mph8.0 kmh 30.05 in1017.6 mb 0.00 in0.0 mm 0.00 in0.0 mm 0.00 in0.0 mm
01:35 AM 68.5°F20.3°C -23.2°F-30.7°C 2% Calm Calm -- 30.05 in1017.6 mb 0.00 in0.0 mm 0.00 in0.0 mm 0.00 in0.0 mm
01:30 AM 68.5°F20.3°C -23.2°F-30.7°C 2% Calm Calm -- 30.05 in1017.6 mb 0.00 in0.0 mm 0.00 in0.0 mm 0.00 in0.0 mm
01:25 AM 68.5°F20.3°C -23.2°F-30.7°C 2% Calm Calm -- 30.05 in1017.6 mb 0.00 in0.0 mm 0.00 in0.0 mm 0.00 in0.0 mm
01:20 AM 68.5°F20.3°C -23.2°F-30.7°C 2% Calm Calm -- 30.05 in1017.6 mb 0.00 in0.0 mm 0.00 in0.0 mm 0.00 in0.0 mm
01:15 AM 68.5°F20.3°C -23.2°F-30.7°C 2% Calm Calm -- 30.05 in1017.6 mb 0.00 in0.0 mm 0.00 in0.0 mm 0.00 in0.0 mm
01:10 AM 68.5°F20.3°C -23.2°F-30.7°C 2% Calm Calm -- 30.06 in1017.9 mb 0.00 in0.0 mm 0.00 in0.0 mm 0.00 in0.0 mm
01:05 AM 68.5°F20.3°C -23.2°F-30.7°C 2% Calm Calm -- 30.06 in1017.9 mb 0.00 in0.0 mm 0.00 in0.0 mm 0.00 in0.0 mm
01:00 AM 68.5°F20.3°C -23.2°F-30.7°C 2% Calm Calm -- 30.06 in1017.9 mb 0.00 in0.0 mm 0.00 in0.0 mm 0.00 in0.0 mm
12:55 AM 68.5°F20.3°C -23.2°F-30.7°C 2% Calm Calm -- 30.06 in1017.9 mb 0.00 in0.0 mm 0.00 in0.0 mm 0.00 in0.0 mm
12:50 AM 68.5°F20.3°C -23.2°F-30.7°C 2% Calm Calm -- 30.07 in1018.3 mb 0.00 in0.0 mm 0.00 in0.0 mm 0.00 in0.0 mm
12:45 AM 68.5°F20.3°C -23.2°F-30.7°C 2% Calm Calm -- 30.08 in1018.6 mb 0.00 in0.0 mm 0.00 in0.0 mm 0.00 in0.0 mm
12:40 AM 68.6°F20.3°C -23.1°F-30.6°C 2% Calm Calm -- 30.07 in1018.3 mb 0.00 in0.0 mm 0.00 in0.0 mm 0.00 in0.0 mm
12:35 AM 68.6°F20.3°C -23.1°F-30.6°C 2% Calm Calm -- 30.07 in1018.3 mb 0.00 in0.0 mm 0.00 in0.0 mm 0.00 in0.0 mm
12:30 AM 68.6°F20.3°C -23.1°F-30.6°C 2% Calm Calm -- 30.07 in1018.3 mb 0.00 in0.0 mm 0.00 in0.0 mm 0.00 in0.0 mm
12:25 AM 68.6°F20.3°C -23.1°F-30.6°C 2% Calm Calm -- 30.07 in1018.3 mb 0.00 in0.0 mm 0.00 in0.0 mm 0.00 in0.0 mm
12:20 AM 68.6°F20.3°C -23.1°F-30.6°C 2% Calm Calm -- 30.07 in1018.3 mb 0.00 in0.0 mm 0.00 in0.0 mm 0.00 in0.0 mm
12:15 AM 68.6°F20.3°C -23.1°F-30.6°C 2% Calm Calm -- 30.07 in1018.3 mb 0.00 in0.0 mm 0.00 in0.0 mm 0.00 in0.0 mm
12:10 AM 68.6°F20.3°C -15.3°F-26.3°C 3% Calm Calm -- 30.07 in1018.3 mb 0.00 in0.0 mm 0.00 in0.0 mm 0.00 in0.0 mm
12:05 AM 68.5°F20.3°C -15.4°F-26.3°C 3% Calm Calm -- 30.07 in1018.3 mb 0.00 in0.0 mm 0.00 in0.0 mm 0.00 in0.0 mm
12:00 AM 68.5°F20.3°C -15.4°F-26.3°C 3% Calm Calm -- 30.07 in1018.3 mb 0.00 in0.0 mm 0.00 in0.0 mm 0.00 in0.0 mm